Гольда

Карта отелей и гостиниц, располагающихся рядом с аэропортом Гольда :



Гольда Хабаровский край 47° 47' 29.76" N, 135° 5' 3.7788" E

Гольда Хабаровский край 47° 47' 29.76" N, 135° 5' 3.7788" E
Код аэродрома ИКАО: 
HGB1
Код аэродрома RU: 
ХГБ1
Координаты: 
N47.79160° E135.08438°
Превышение над уровнем моря : 
60
Основная полоса: 
13/31
Курс магнитный: 
130,7/310,7
Длина основной ВПП: 
23
Ширина основной ВПП: 
23
Покрытие основной ВПП: 
Твёрдое
Тип: 
Вертодром
Освещение ВПП: 
Нет
Класс аэродрома: 
Статус: 
Действующий
Принадлежность: 
ГА
Сайт: 
E-mail аэродрома: 
Страна: 
Россия
Регион: 
Хабаровский край
Город: 
Дополнительная информация: 
Оператор: нет данных.

Найти трансфер

С помощью этой формы Вы можете найти трансфер из аэропорта Гольда в город, аэропорт или вокзал:

Карта места

Javascript is required to view this map.

Погода в аэропортах:

Авиационная погода в Каяани

Регион: 
Погода METAR: 
EFKI 210350Z 18017KT 150V220 9999 -SN OVC013 M01/M04 Q0998
Время наблюдения: 
2020-02-21T03:50:00Z
Температура C: 
-1.0
Точка росы: 
-4.0
Направление ветра: 
180
Скорость ветра: 
17
Метеорологическая видимость: 
6.21
Явления погоды: 
-SN
Условия полета: 
MVFR

Авиационная погода в Уральске

Регион: 
Погода METAR: 
UARR 210400Z 36003MPS 0250 R04/0250N FZFG SCT001 BKN150 M06/M06 Q1023 R04/CLRD70 TEMPO 0200 FZFG VV001 RMK QBB050 QFE764/1018
Время наблюдения: 
2020-02-21T04:00:00Z
Температура C: 
-6.0
Точка росы: 
-6.0
Направление ветра: 
360
Скорость ветра: 
6
Метеорологическая видимость: 
0.16
Явления погоды: 
FZFG
Условия полета: 
LIFR
Аэропорт подробнее: 

Авиационная погода в Ургенче

Регион: 
Погода METAR: 
UTNU 210400Z 00000KT 7000 -SHRA OVC066CB 04/02 Q1011 R31/290250 NOSIG
Время наблюдения: 
2020-02-21T04:00:00Z
Температура C: 
4.0
Точка росы: 
2.0
Направление ветра: 
0
Скорость ветра: 
0
Метеорологическая видимость: 
4.35
Явления погоды: 
-SHRA
Условия полета: 
MVFR

Авиационная погода в Нижневартовске

Регион: 
Погода METAR: 
USNN 210400Z 23004MPS 8000 -SN SCT006 OVC017 M00/M01 Q1009 R21/490236 NOSIG RMK QFE752
Время наблюдения: 
2020-02-21T04:00:00Z
Температура C: 
0.0
Точка росы: 
-1.0
Направление ветра: 
230
Скорость ветра: 
8
Метеорологическая видимость: 
4.97
Явления погоды: 
-SN
Условия полета: 
MVFR
Аэропорт подробнее: